sensor_id;sensor_type;location;lat;lon;timestamp;P1;P2;P0
68341;PMS7003;55668;52.310;21.066;2022-09-02T00:27:15;1;1;
68341;PMS7003;55668;52.310;21.066;2022-09-02T00:59:01;1;1;
68341;PMS7003;55668;52.310;21.066;2022-09-02T01:13:23;1;1;
68341;PMS7003;55668;52.310;21.066;2022-09-02T01:29:45;1;1;
68341;PMS7003;55668;52.310;21.066;2022-09-02T02:01:12;1;1;
68341;PMS7003;55668;52.310;21.066;2022-09-02T02:15:36;1;1;
68341;PMS7003;55668;52.310;21.066;2022-09-02T02:30:15;2;2;
68341;PMS7003;55668;52.310;21.066;2022-09-02T02:46:29;1;1;
68341;PMS7003;55668;52.310;21.066;2022-09-02T03:16:28;2;2;
68341;PMS7003;55668;52.310;21.066;2022-09-02T03:46:54;4;3;
68341;PMS7003;55668;52.310;21.066;2022-09-02T04:02:08;1;1;
68341;PMS7003;55668;52.310;21.066;2022-09-02T04:18:40;1;1;
68341;PMS7003;55668;52.310;21.066;2022-09-02T04:32:47;1;1;
68341;PMS7003;55668;52.310;21.066;2022-09-02T04:48:48;2;2;
68341;PMS7003;55668;52.310;21.066;2022-09-02T05:03:47;1;1;
68341;PMS7003;55668;52.310;21.066;2022-09-02T05:19:06;1;1;
68341;PMS7003;55668;52.310;21.066;2022-09-02T05:34:41;2;2;
68341;PMS7003;55668;52.310;21.066;2022-09-02T05:51:36;1;1;
68341;PMS7003;55668;52.310;21.066;2022-09-02T06:05:08;3;3;
68341;PMS7003;55668;52.310;21.066;2022-09-02T06:21:45;3;3;
68341;PMS7003;55668;52.310;21.066;2022-09-02T06:36:39;1;1;
68341;PMS7003;55668;52.310;21.066;2022-09-02T06:52:49;1;1;
68341;PMS7003;55668;52.310;21.066;2022-09-02T07:11:34;0;0;
68341;PMS7003;55668;52.310;21.066;2022-09-02T07:23:20;1;1;
68341;PMS7003;55668;52.310;21.066;2022-09-02T07:37:25;0;0;
68341;PMS7003;55668;52.310;21.066;2022-09-02T07:53:47;0;0;
68341;PMS7003;55668;52.310;21.066;2022-09-02T08:11:35;0;0;
68341;PMS7003;55668;52.310;21.066;2022-09-02T08:24:05;0;0;
68341;PMS7003;55668;52.310;21.066;2022-09-02T08:40:03;0;0;
68341;PMS7003;55668;52.310;21.066;2022-09-02T08:55:06;0;0;
68341;PMS7003;55668;52.310;21.066;2022-09-02T09:10:15;0;0;
68341;PMS7003;55668;52.310;21.066;2022-09-02T09:25:47;0;0;
68341;PMS7003;55668;52.310;21.066;2022-09-02T09:40:46;0;0;
68341;PMS7003;55668;52.310;21.066;2022-09-02T09:55:21;0;0;
68341;PMS7003;55668;52.310;21.066;2022-09-02T10:11:54;0;0;
68341;PMS7003;55668;52.310;21.066;2022-09-02T10:29:37;0;0;
68341;PMS7003;55668;52.310;21.066;2022-09-02T10:56:52;0;0;
68341;PMS7003;55668;52.310;21.066;2022-09-02T11:13:13;0;0;
68341;PMS7003;55668;52.310;21.066;2022-09-02T11:29:58;0;0;
68341;PMS7003;55668;52.310;21.066;2022-09-02T11:45:09;0;0;
68341;PMS7003;55668;52.310;21.066;2022-09-02T12:29:48;0;0;
68341;PMS7003;55668;52.310;21.066;2022-09-02T12:45:30;0;0;
68341;PMS7003;55668;52.310;21.066;2022-09-02T12:52:40;0;0;
68341;PMS7003;55668;52.310;21.066;2022-09-02T13:07:54;0;0;
68341;PMS7003;55668;52.310;21.066;2022-09-02T13:23:53;0;0;
68341;PMS7003;55668;52.310;21.066;2022-09-02T13:38:11;0;0;
68341;PMS7003;55668;52.310;21.066;2022-09-02T13:54:32;0;0;
68341;PMS7003;55668;52.310;21.066;2022-09-02T14:08:50;0;0;
68341;PMS7003;55668;52.310;21.066;2022-09-02T14:24:36;0;0;
68341;PMS7003;55668;52.310;21.066;2022-09-02T14:40:30;0;0;
68341;PMS7003;55668;52.310;21.066;2022-09-02T14:55:42;0;0;
68341;PMS7003;55668;52.310;21.066;2022-09-02T15:10:37;0;0;
68341;PMS7003;55668;52.310;21.066;2022-09-02T15:26:48;0;0;
68341;PMS7003;55668;52.310;21.066;2022-09-02T18:55:32;43;37;
68341;PMS7003;55668;52.310;21.066;2022-09-02T19:00:59;43;37;
68341;PMS7003;55668;52.310;21.066;2022-09-02T19:16:38;18;18;
68341;PMS7003;55668;52.310;21.066;2022-09-02T19:33:05;13;12;
68341;PMS7003;55668;52.310;21.066;2022-09-02T19:47:50;10;10;
68341;PMS7003;55668;52.310;21.066;2022-09-02T20:02:13;9;9;
68341;PMS7003;55668;52.310;21.066;2022-09-02T20:17:43;8;8;
68341;PMS7003;55668;52.310;21.066;2022-09-02T20:33:13;7;7;
68341;PMS7003;55668;52.310;21.066;2022-09-02T20:49:05;6;5;
68341;PMS7003;55668;52.310;21.066;2022-09-02T21:05:30;5;5;
68341;PMS7003;55668;52.310;21.066;2022-09-02T21:19:19;6;6;
68341;PMS7003;55668;52.310;21.066;2022-09-02T21:34:53;7;7;
68341;PMS7003;55668;52.310;21.066;2022-09-02T21:51:11;6;6;
68341;PMS7003;55668;52.310;21.066;2022-09-02T22:05:46;5;5;
68341;PMS7003;55668;52.310;21.066;2022-09-02T22:21:26;5;5;
68341;PMS7003;55668;52.310;21.066;2022-09-02T22:36:41;7;7;
68341;PMS7003;55668;52.310;21.066;2022-09-02T22:51:31;5;5;
68341;PMS7003;55668;52.310;21.066;2022-09-02T23:06:25;6;6;
68341;PMS7003;55668;52.310;21.066;2022-09-02T23:22:23;6;6;
68341;PMS7003;55668;52.310;21.066;2022-09-02T23:39:02;5;5;
68341;PMS7003;55668;52.310;21.066;2022-09-02T23:52:26;5;5;
